Time;durP1;ratioP1;P1;durP2;ratioP2;P2;SDS_P1;SDS_P2;PMS_P1;PMS_P2;Temp;Humidity;BMP_temperature;BMP_pressure;BME280_temperature;BME280_humidity;BME280_pressure;Samples;Min_cycle;Max_cycle;Signal;HPM_P1;HPM_P2
2021/01/27 00:01:46;;;;;;;60.30;25.45;;;-2.60;99.90;;;;;;5055729;28;20099;-81
2021/01/27 00:04:12;;;;;;;52.80;25.33;;;-2.60;99.90;;;;;;5071304;28;20052;-81
2021/01/27 00:06:39;;;;;;;50.30;24.17;;;-2.60;99.90;;;;;;5056199;28;20079;-81
2021/01/27 00:09:05;;;;;;;44.97;21.63;;;-2.60;99.90;;;;;;5054539;28;20499;-81
2021/01/27 00:11:30;;;;;;;49.10;22.52;;;-2.60;99.90;;;;;;5054440;28;20021;-81
2021/01/27 00:13:56;;;;;;;52.50;23.70;;;-2.60;99.90;;;;;;5054828;28;20474;-81
2021/01/27 00:16:22;;;;;;;48.22;23.35;;;-2.50;99.90;;;;;;5055715;28;20021;-82
2021/01/27 00:18:47;;;;;;;48.58;23.27;;;-2.50;99.90;;;;;;5054014;28;20020;-82
2021/01/27 00:21:13;;;;;;;53.05;22.80;;;-2.50;99.90;;;;;;5055435;28;20060;-81
2021/01/27 00:23:39;;;;;;;43.28;19.73;;;-2.50;99.90;;;;;;5055131;28;20511;-81
2021/01/27 00:26:04;;;;;;;42.83;21.65;;;-2.50;99.90;;;;;;5054321;28;20104;-81
2021/01/27 00:28:30;;;;;;;44.55;18.52;;;-2.50;99.90;;;;;;5055357;28;20104;-81
2021/01/27 00:30:56;;;;;;;43.55;19.95;;;-2.50;99.90;;;;;;5054589;28;20538;-81
2021/01/27 00:33:22;;;;;;;38.05;20.02;;;-2.50;99.90;;;;;;5055418;28;20048;-81
2021/01/27 00:35:49;;;;;;;47.47;21.98;;;-2.40;99.90;;;;;;5054120;28;20025;-82
2021/01/27 00:38:17;;;;;;;44.00;19.73;;;-2.50;99.90;;;;;;5055105;28;20029;-81
2021/01/27 00:40:44;;;;;;;38.90;20.15;;;-2.40;99.90;;;;;;5071026;28;20064;-82
2021/01/27 00:43:10;;;;;;;37.13;18.80;;;-2.50;99.90;;;;;;5054168;28;20029;-82
2021/01/27 00:45:35;;;;;;;43.97;19.85;;;-2.50;99.90;;;;;;5053877;28;20486;-82
2021/01/27 00:48:01;;;;;;;41.47;19.58;;;-2.50;99.90;;;;;;5053887;28;20032;-82
2021/01/27 00:50:27;;;;;;;44.90;22.95;;;-2.50;99.90;;;;;;5053241;28;20023;-82
2021/01/27 00:52:53;;;;;;;46.10;22.38;;;-2.50;99.90;;;;;;5070487;28;20025;-82
2021/01/27 00:55:22;;;;;;;50.10;23.25;;;-2.50;99.90;;;;;;5053679;28;20021;-81
2021/01/27 00:57:48;;;;;;;46.92;22.05;;;-2.50;99.90;;;;;;5053591;28;20360;-82
2021/01/27 01:00:21;;;;;;;50.55;22.23;;;-2.50;99.90;;;;;;5053435;28;20032;-81
2021/01/27 01:02:46;;;;;;;;;;;-2.50;99.90;;;;;;5054220;28;20037;-81
2021/01/27 01:05:16;;;;;;;42.83;21.20;;;-2.50;99.90;;;;;;5070508;28;19912;-81
2021/01/27 01:07:46;;;;;;;53.15;22.88;;;-2.50;99.90;;;;;;5053532;28;20482;-81
2021/01/27 01:10:13;;;;;;;55.58;22.77;;;-2.50;99.90;;;;;;5053530;28;20027;-81
2021/01/27 01:12:39;;;;;;;49.80;21.92;;;-2.50;99.90;;;;;;5053577;28;20029;-81
2021/01/27 01:15:05;;;;;;;49.10;22.83;;;-2.50;99.90;;;;;;5069792;28;20039;-81
2021/01/27 01:17:31;;;;;;;45.67;22.42;;;-2.50;99.90;;;;;;5054639;28;20013;-81
2021/01/27 01:19:57;;;;;;;54.55;23.30;;;-2.50;99.90;;;;;;5053720;28;20025;-81
2021/01/27 01:22:22;;;;;;;50.75;23.85;;;-2.50;99.90;;;;;;5069941;28;20507;-82
2021/01/27 01:24:48;;;;;;;50.95;23.45;;;-2.40;99.90;;;;;;5053230;28;20032;-82
2021/01/27 01:27:14;;;;;;;52.72;23.75;;;-2.40;99.90;;;;;;5053304;28;20139;-82
2021/01/27 01:29:39;;;;;;;42.28;23.80;;;-2.40;99.90;;;;;;5053028;28;20466;-82
2021/01/27 01:32:05;;;;;;;50.03;24.50;;;-2.50;99.90;;;;;;5069878;28;20123;-82
2021/01/27 01:34:31;;;;;;;59.20;25.90;;;-2.40;99.90;;;;;;5052969;28;20071;-81
2021/01/27 01:36:56;;;;;;;62.10;27.20;;;-2.40;99.90;;;;;;5053097;28;20013;-82
2021/01/27 01:39:22;;;;;;;53.53;26.10;;;-2.50;99.90;;;;;;5052909;28;20032;-82
2021/01/27 01:41:48;;;;;;;55.80;24.77;;;-2.40;99.90;;;;;;5053193;28;20028;-82
2021/01/27 01:44:13;;;;;;;56.58;25.63;;;-2.40;99.90;;;;;;5069482;28;20493;-82
2021/01/27 01:46:39;;;;;;;57.75;28.20;;;-2.40;99.90;;;;;;5052673;28;20422;-81
2021/01/27 01:49:08;;;;;;;57.35;27.90;;;-2.40;99.90;;;;;;5069748;28;20025;-82
2021/01/27 01:51:39;;;;;;;66.97;28.52;;;-2.40;99.90;;;;;;5053967;28;20034;-82
2021/01/27 01:54:15;;;;;;;62.97;27.42;;;-2.40;99.90;;;;;;5052893;28;20100;-81
2021/01/27 01:56:46;;;;;;;58.85;28.67;;;-2.40;99.90;;;;;;5053908;28;20532;-82
2021/01/27 01:59:12;;;;;;;56.88;26.40;;;-2.40;99.90;;;;;;5052917;28;20376;-82
2021/01/27 02:01:41;;;;;;;50.53;26.55;;;-2.40;99.90;;;;;;5052395;28;20071;-81
2021/01/27 02:04:07;;;;;;;63.72;28.05;;;-2.40;99.90;;;;;;5051800;28;20027;-82
2021/01/27 02:06:33;;;;;;;56.25;27.50;;;-2.40;99.90;;;;;;5053640;28;20025;-82
2021/01/27 02:08:59;;;;;;;54.53;27.00;;;-2.40;99.90;;;;;;5052373;28;20063;-82
2021/01/27 02:11:39;;;;;;;54.20;26.05;;;-2.40;99.90;;;;;;5053850;28;20036;-83
2021/01/27 02:14:16;;;;;;;59.55;27.52;;;-2.40;99.90;;;;;;5068645;28;20032;-82
2021/01/27 02:16:54;;;;;;;62.42;28.48;;;-2.40;99.90;;;;;;5052698;28;20083;-83
2021/01/27 02:19:41;;;;;;;54.50;27.75;;;-2.40;99.90;;;;;;5053672;28;20063;-83
2021/01/27 02:22:39;;;;;;;61.72;28.77;;;-2.40;99.90;;;;;;5069175;28;20410;-82
2021/01/27 02:25:43;;;;;;;63.63;27.55;;;-2.40;99.90;;;;;;5049454;28;20025;-82
2021/01/27 02:28:13;;;;;;;64.82;29.42;;;-2.30;99.90;;;;;;5053469;28;20482;-82
2021/01/27 02:30:53;;;;;;;62.35;28.60;;;-2.30;99.90;;;;;;5053317;28;20028;-82
2021/01/27 02:33:47;;;;;;;64.35;28.25;;;-2.30;99.90;;;;;;5053171;28;20079;-82
2021/01/27 02:36:40;;;;;;;65.20;27.77;;;-2.30;99.90;;;;;;5068055;28;20048;-82
2021/01/27 02:39:11;;;;;;;61.08;27.02;;;-2.30;99.90;;;;;;5062178;28;20044;-82
2021/01/27 02:41:48;;;;;;;58.55;28.08;;;-2.30;99.90;;;;;;5052134;28;20021;-82
2021/01/27 02:44:18;;;;;;;58.90;26.80;;;-2.30;99.90;;;;;;5052944;28;20028;-82
2021/01/27 02:46:55;;;;;;;67.15;29.23;;;-2.30;99.90;;;;;;5051847;28;20387;-81
2021/01/27 02:49:41;;;;;;;62.00;27.58;;;-2.30;99.90;;;;;;5068359;28;20025;-81
2021/01/27 02:52:12;;;;;;;68.50;28.73;;;-2.30;99.90;;;;;;5051797;28;20017;-81
2021/01/27 02:54:42;;;;;;;60.97;26.98;;;-2.30;99.90;;;;;;5068287;28;20024;-81
2021/01/27 02:57:33;;;;;;;69.47;30.98;;;-2.30;99.90;;;;;;5068297;28;20017;-82
2021/01/27 03:00:13;;;;;;;61.50;27.85;;;-2.30;99.90;;;;;;5068316;28;20021;-82
2021/01/27 03:02:55;;;;;;;67.97;30.08;;;-2.20;99.90;;;;;;5068493;28;20124;-81
2021/01/27 03:05:36;;;;;;;59.72;27.38;;;-2.20;99.90;;;;;;5051283;28;20025;-81
2021/01/27 03:08:23;;;;;;;64.55;25.88;;;-2.20;99.90;;;;;;5049583;28;20028;-82
2021/01/27 03:10:57;;;;;;;60.38;26.67;;;-2.20;99.90;;;;;;5049769;28;20017;-81
2021/01/27 03:13:23;;;;;;;66.88;31.08;;;-2.20;99.90;;;;;;5067954;28;20021;-81
2021/01/27 03:15:49;;;;;;;65.47;29.63;;;-2.20;99.90;;;;;;5051317;28;20031;-81
2021/01/27 03:18:27;;;;;;;65.13;27.75;;;-2.20;99.90;;;;;;5050658;28;21630;-81
2021/01/27 03:20:57;;;;;;;68.53;29.77;;;-2.20;99.90;;;;;;5052833;28;20028;-82
2021/01/27 03:23:28;;;;;;;63.97;30.40;;;-2.20;99.90;;;;;;5051265;28;20029;-81
2021/01/27 03:26:01;;;;;;;58.15;27.00;;;-2.20;99.90;;;;;;5068173;28;20027;-81
2021/01/27 03:28:32;;;;;;;69.50;28.98;;;-2.20;99.90;;;;;;5052475;28;20029;-82
2021/01/27 03:30:58;;;;;;;57.47;27.13;;;-2.20;99.90;;;;;;5051268;28;20125;-82
2021/01/27 03:33:33;;;;;;;58.88;27.83;;;-2.20;99.90;;;;;;5067951;28;20025;-81
2021/01/27 03:36:02;;;;;;;68.28;29.17;;;-2.20;99.90;;;;;;5051439;28;20025;-82
2021/01/27 03:38:43;;;;;;;60.80;28.17;;;-2.20;99.90;;;;;;5051084;28;20467;-82
2021/01/27 03:41:37;;;;;;;65.35;29.20;;;-2.20;99.90;;;;;;5051248;28;20024;-81
2021/01/27 03:44:08;;;;;;;59.88;27.33;;;-2.20;99.90;;;;;;5050370;28;20043;-81
2021/01/27 03:46:58;;;;;;;62.72;28.88;;;-2.10;99.90;;;;;;5067826;28;20025;-81
2021/01/27 03:49:33;;;;;;;60.58;26.42;;;-2.10;99.90;;;;;;5050542;28;20037;-81
2021/01/27 03:52:30;;;;;;;58.17;25.83;;;-2.10;99.90;;;;;;5068196;28;20029;-81
2021/01/27 03:55:02;;;;;;;66.70;28.98;;;-2.10;99.90;;;;;;5067760;28;20035;-81
2021/01/27 03:57:34;;;;;;;60.63;28.50;;;-2.10;99.90;;;;;;5066455;28;20112;-81
2021/01/27 04:00:00;;;;;;;68.85;28.95;;;-2.10;99.90;;;;;;5068218;28;20021;-82
2021/01/27 04:02:26;;;;;;;60.03;28.98;;;-2.10;99.90;;;;;;5052342;28;20211;-82
2021/01/27 04:04:52;;;;;;;69.35;27.60;;;-2.10;99.90;;;;;;5050854;28;20021;-81
2021/01/27 04:07:18;;;;;;;65.90;29.45;;;-2.10;99.90;;;;;;5059170;28;20025;-82
2021/01/27 04:09:44;;;;;;;68.32;29.10;;;-2.10;99.90;;;;;;5067868;28;20017;-82
2021/01/27 04:12:10;;;;;;;71.05;31.65;;;-2.10;99.90;;;;;;5067633;28;20021;-82
2021/01/27 04:14:36;;;;;;;160.23;62.75;;;-2.10;99.90;;;;;;5067324;28;20021;-82
2021/01/27 04:17:27;;;;;;;100.45;41.10;;;-2.00;99.90;;;;;;5068018;28;20025;-82
2021/01/27 04:19:53;;;;;;;153.02;56.90;;;-2.00;99.90;;;;;;5052092;28;20014;-82
2021/01/27 04:22:19;;;;;;;114.22;44.42;;;-2.00;99.90;;;;;;5052028;28;20043;-82
2021/01/27 04:24:45;;;;;;;148.32;55.35;;;-2.00;99.90;;;;;;5067402;28;20036;-82
2021/01/27 04:27:11;;;;;;;185.45;64.45;;;-2.00;99.90;;;;;;5070528;28;20051;-82
2021/01/27 04:29:37;;;;;;;324.70;107.07;;;-2.00;99.90;;;;;;5070877;28;20025;-82
2021/01/27 04:32:02;;;;;;;350.15;95.13;;;-2.00;99.90;;;;;;5071004;28;20025;-82
2021/01/27 04:34:28;;;;;;;215.75;58.33;;;-2.00;99.90;;;;;;5059459;28;20053;-82
2021/01/27 04:36:54;;;;;;;129.65;42.95;;;-2.00;99.90;;;;;;5054272;28;20456;-82
2021/01/27 04:39:19;;;;;;;608.47;240.38;;;-2.00;99.90;;;;;;5055243;28;20116;-82
2021/01/27 04:41:45;;;;;;;642.22;213.18;;;-2.00;99.90;;;;;;5053974;28;20119;-81
2021/01/27 04:44:11;;;;;;;202.48;59.40;;;-2.00;99.90;;;;;;5055298;28;20104;-82
2021/01/27 04:46:47;;;;;;;122.97;39.83;;;-2.00;99.90;;;;;;5070662;28;20119;-82
2021/01/27 04:49:26;;;;;;;213.18;69.22;;;-2.00;99.90;;;;;;5054251;28;20016;-82
2021/01/27 04:52:05;;;;;;;587.92;222.57;;;-2.00;99.90;;;;;;5055469;28;20060;-82
2021/01/27 04:54:59;;;;;;;180.02;52.88;;;-2.00;99.90;;;;;;5053977;28;20422;-82
2021/01/27 04:58:03;;;;;;;149.85;47.85;;;-2.00;99.90;;;;;;5053766;28;20063;-82
2021/01/27 05:00:40;;;;;;;139.02;46.30;;;-2.00;99.90;;;;;;5053385;28;20061;-81
2021/01/27 05:03:28;;;;;;;570.72;217.85;;;-2.00;99.90;;;;;;5054630;28;20032;-81
2021/01/27 05:06:02;;;;;;;156.23;51.17;;;-2.00;99.90;;;;;;5068410;28;20039;-82
2021/01/27 05:08:35;;;;;;;440.58;147.30;;;-2.00;99.90;;;;;;5034884;28;20030;-81
2021/01/27 05:11:05;;;;;;;839.40;331.45;;;-2.00;99.90;;;;;;5033726;28;20017;-82
2021/01/27 05:13:46;;;;;;;247.88;73.30;;;-2.00;99.90;;;;;;5033440;28;20029;-81
2021/01/27 05:16:15;;;;;;;527.65;187.65;;;-2.00;99.90;;;;;;5034932;28;20048;-82
2021/01/27 05:18:41;;;;;;;197.32;57.35;;;-1.90;99.90;;;;;;5033693;28;20017;-82
2021/01/27 05:21:35;;;;;;;206.38;70.30;;;-1.90;99.90;;;;;;5033710;28;20029;-82
2021/01/27 05:24:01;;;;;;;147.68;53.60;;;-1.90;99.90;;;;;;5034293;28;20041;-81
2021/01/27 05:26:54;;;;;;;136.38;42.47;;;-1.90;99.90;;;;;;5033190;28;20022;-81
2021/01/27 05:29:42;;;;;;;162.77;65.18;;;-1.90;99.90;;;;;;5034478;28;20561;-82
2021/01/27 05:32:15;;;;;;;122.40;39.67;;;-1.90;99.90;;;;;;5033571;28;20031;-81
2021/01/27 05:34:49;;;;;;;158.98;53.72;;;-1.90;99.90;;;;;;5051142;28;20063;-82
2021/01/27 05:37:27;;;;;;;99.18;41.97;;;-1.90;99.90;;;;;;5069928;28;20104;-82
2021/01/27 05:40:13;;;;;;;64.00;26.33;;;-1.90;99.90;;;;;;5053498;28;20056;-81
2021/01/27 05:42:39;;;;;;;73.07;35.90;;;-1.90;99.90;;;;;;5069506;28;20052;-81
2021/01/27 05:45:30;;;;;;;61.25;26.23;;;-1.90;99.90;;;;;;5069564;28;20025;-82
2021/01/27 05:48:10;;;;;;;53.97;23.20;;;-1.90;99.90;;;;;;5069434;28;20108;-82
2021/01/27 05:50:41;;;;;;;67.50;29.33;;;-1.90;99.90;;;;;;5069732;28;20028;-81
2021/01/27 05:53:21;;;;;;;63.55;27.58;;;-1.80;99.90;;;;;;5069636;28;20032;-81
2021/01/27 05:56:03;;;;;;;45.55;20.65;;;-1.80;99.90;;;;;;5069615;28;20032;-81
2021/01/27 05:58:37;;;;;;;52.88;21.75;;;-1.80;99.90;;;;;;5069132;28;20095;-82
2021/01/27 06:01:14;;;;;;;39.67;20.33;;;-1.80;99.90;;;;;;5069713;28;20033;-81
2021/01/27 06:03:50;;;;;;;40.38;19.98;;;-1.80;99.90;;;;;;5053421;28;20500;-81
2021/01/27 06:06:17;;;;;;;44.40;20.35;;;-1.70;99.90;;;;;;5069226;28;20040;-82
2021/01/27 06:08:49;;;;;;;46.83;21.17;;;-1.70;99.90;;;;;;5052297;28;20021;-82
2021/01/27 06:11:15;;;;;;;41.38;20.42;;;-1.70;99.90;;;;;;5053709;28;20481;-81
2021/01/27 06:13:41;;;;;;;51.83;24.13;;;-1.70;99.90;;;;;;5052304;28;20029;-81
2021/01/27 06:16:22;;;;;;;123.35;65.15;;;-1.70;99.90;;;;;;5053582;28;20029;-81
2021/01/27 06:18:48;;;;;;;41.63;18.30;;;-1.70;99.90;;;;;;5053489;28;20087;-81
2021/01/27 06:21:46;;;;;;;38.58;18.73;;;-1.70;99.90;;;;;;5053437;28;20059;-81
2021/01/27 06:24:19;;;;;;;53.67;27.20;;;-1.70;99.90;;;;;;5042872;28;20044;-83
2021/01/27 06:27:22;;;;;;;36.70;19.83;;;-1.70;99.90;;;;;;5053177;28;20104;-81
2021/01/27 06:30:19;;;;;;;37.58;19.27;;;-1.70;99.90;;;;;;5053050;28;20140;-82
2021/01/27 06:33:22;;;;;;;40.97;18.65;;;-1.70;99.90;;;;;;5051220;28;20398;-81
2021/01/27 06:35:55;;;;;;;38.58;19.02;;;-1.60;99.90;;;;;;5053254;28;20033;-81
2021/01/27 06:38:31;;;;;;;38.65;18.77;;;-1.60;99.90;;;;;;5068855;28;20091;-82
2021/01/27 06:41:18;;;;;;;36.55;18.05;;;-1.60;99.90;;;;;;5052175;28;20017;-82
2021/01/27 06:44:18;;;;;;;38.60;18.70;;;-1.60;99.90;;;;;;5052908;28;20036;-82
2021/01/27 06:47:07;;;;;;;39.65;20.13;;;-1.60;99.90;;;;;;5052237;28;20037;-82
2021/01/27 06:50:01;;;;;;;53.35;24.25;;;-1.60;99.90;;;;;;5047844;28;20029;-82
2021/01/27 06:52:29;;;;;;;67.15;30.98;;;-1.60;99.90;;;;;;5052423;28;20044;-81
2021/01/27 06:55:07;;;;;;;64.07;29.90;;;-1.50;99.90;;;;;;5068405;28;20029;-82
2021/01/27 06:58:00;;;;;;;153.40;71.75;;;-1.50;99.90;;;;;;5052757;28;20024;-82
2021/01/27 07:00:28;;;;;;;102.75;38.33;;;-1.50;99.90;;;;;;5066431;28;20106;-81
2021/01/27 07:03:25;;;;;;;109.38;44.78;;;-1.50;99.90;;;;;;5067840;28;20044;-82
2021/01/27 07:06:12;;;;;;;108.63;44.38;;;-1.50;99.90;;;;;;5068041;28;20025;-81
2021/01/27 07:08:56;;;;;;;180.73;67.55;;;-1.50;99.90;;;;;;5068103;28;20037;-82
2021/01/27 07:11:29;;;;;;;76.78;30.25;;;-1.50;99.90;;;;;;5052725;28;20032;-81
2021/01/27 07:14:28;;;;;;;49.40;22.52;;;-1.40;99.90;;;;;;5051461;28;20056;-81
2021/01/27 07:17:20;;;;;;;51.05;23.50;;;-1.50;99.90;;;;;;5051353;28;20074;-81
2021/01/27 07:20:26;;;;;;;36.33;17.90;;;-1.40;99.90;;;;;;5052537;28;20033;-82
2021/01/27 07:23:13;;;;;;;28.40;15.07;;;-1.40;99.90;;;;;;5062050;28;20069;-82
2021/01/27 07:25:42;;;;;;;31.30;16.73;;;-1.40;99.90;;;;;;5047189;28;20108;-82
2021/01/27 07:28:22;;;;;;;27.00;16.38;;;-1.40;99.90;;;;;;5065900;28;20021;-82
2021/01/27 07:30:57;;;;;;;32.42;15.50;;;-1.40;99.90;;;;;;5065110;28;20029;-82
2021/01/27 07:33:37;;;;;;;27.48;13.80;;;-1.40;99.90;;;;;;5051548;28;20025;-82
2021/01/27 07:36:32;;;;;;;19.92;10.23;;;-1.40;99.90;;;;;;5052933;28;20029;-82
2021/01/27 07:39:01;;;;;;;25.48;10.95;;;-1.40;99.90;;;;;;5067937;28;20033;-81
2021/01/27 07:41:37;;;;;;;21.95;11.90;;;-1.40;99.90;;;;;;5060287;28;20091;-81
2021/01/27 07:44:07;;;;;;;27.75;10.98;;;-1.40;99.90;;;;;;5048543;28;20032;-81
2021/01/27 07:47:03;;;;;;;24.55;11.18;;;-1.40;99.90;;;;;;5045684;28;20387;-81
2021/01/27 07:49:55;;;;;;;18.67;10.77;;;-1.40;99.90;;;;;;5056569;28;20063;-81
2021/01/27 07:52:55;;;;;;;23.60;11.60;;;-1.40;99.90;;;;;;5063329;28;20033;-81
2021/01/27 07:55:26;;;;;;;19.92;10.38;;;-1.30;99.90;;;;;;5051009;28;20025;-82
2021/01/27 07:58:03;;;;;;;20.00;10.13;;;-1.30;99.90;;;;;;5066052;28;20071;-82
2021/01/27 08:00:39;;;;;;;24.55;10.82;;;-1.30;99.90;;;;;;5065741;28;20032;-82
2021/01/27 08:03:15;;;;;;;35.83;16.65;;;-1.30;99.90;;;;;;5070284;28;20083;-82
2021/01/27 08:05:42;;;;;;;61.30;26.05;;;-1.30;99.90;;;;;;5053714;28;20029;-82
2021/01/27 08:08:18;;;;;;;48.53;20.02;;;-1.20;99.90;;;;;;5055761;28;20466;-82
2021/01/27 08:10:45;;;;;;;45.13;19.13;;;-1.20;99.90;;;;;;5054660;28;20100;-82
2021/01/27 08:13:26;;;;;;;37.20;15.85;;;-1.00;99.90;;;;;;5051185;28;20059;-82
2021/01/27 08:16:35;;;;;;;44.78;18.85;;;-1.10;99.90;;;;;;5054646;28;20433;-82
2021/01/27 08:19:13;;;;;;;34.00;14.30;;;-1.10;99.90;;;;;;5054052;28;20104;-82
2021/01/27 08:21:56;;;;;;;35.33;16.85;;;-1.10;99.90;;;;;;5070372;28;20029;-82
2021/01/27 08:24:37;;;;;;;59.20;23.52;;;-1.10;99.90;;;;;;5054033;28;20025;-82
2021/01/27 08:27:19;;;;;;;52.95;19.90;;;-1.20;99.90;;;;;;5070630;28;20072;-82
2021/01/27 08:29:54;;;;;;;36.53;16.73;;;-1.20;99.90;;;;;;5055409;28;20507;-82
2021/01/27 08:32:23;;;;;;;36.70;14.20;;;-1.10;99.90;;;;;;5070906;28;20024;-82
2021/01/27 08:34:50;;;;;;;40.90;19.80;;;-1.10;99.90;;;;;;5070482;28;20060;-82
2021/01/27 08:37:21;;;;;;;27.75;15.38;;;-1.00;99.90;;;;;;5054209;28;20017;-82
2021/01/27 08:39:47;;;;;;;23.27;12.27;;;-1.10;99.90;;;;;;5054336;28;20136;-82
2021/01/27 08:42:27;;;;;;;29.35;13.98;;;-1.20;99.90;;;;;;5055339;28;20111;-82
2021/01/27 08:44:53;;;;;;;24.08;13.48;;;-1.30;99.90;;;;;;5055370;28;20040;-82
2021/01/27 08:47:26;;;;;;;24.08;12.80;;;-1.30;99.90;;;;;;5070296;28;20386;-82
2021/01/27 08:49:57;;;;;;;27.92;14.30;;;-1.30;99.90;;;;;;5053923;28;20035;-82
2021/01/27 08:52:52;;;;;;;25.67;13.07;;;-1.30;99.90;;;;;;5055536;28;20020;-82
2021/01/27 08:55:35;;;;;;;26.92;14.18;;;-1.20;99.90;;;;;;5061759;28;20044;-82
2021/01/27 08:58:19;;;;;;;27.80;14.45;;;-1.20;99.90;;;;;;5054104;28;20470;-82
2021/01/27 09:00:46;;;;;;;25.45;11.63;;;-1.30;99.90;;;;;;5068558;28;20033;-82
2021/01/27 09:03:37;;;;;;;36.45;15.25;;;-1.30;99.90;;;;;;5070189;28;20036;-82
2021/01/27 09:06:04;;;;;;;22.33;11.50;;;-1.30;99.90;;;;;;5069856;28;20116;-82
2021/01/27 09:08:32;;;;;;;27.00;12.50;;;-1.30;99.90;;;;;;5053953;28;20017;-82
2021/01/27 09:11:06;;;;;;;20.55;10.13;;;-1.30;99.90;;;;;;5054803;28;20028;-82
2021/01/27 09:13:42;;;;;;;17.67;10.18;;;-1.30;99.90;;;;;;5069060;28;20078;-82
2021/01/27 09:16:16;;;;;;;19.77;9.25;;;-1.30;99.90;;;;;;5070082;28;20040;-82
2021/01/27 09:18:52;;;;;;;34.72;18.75;;;-1.30;99.90;;;;;;5070162;28;20490;-82
2021/01/27 09:21:20;;;;;;;24.15;12.77;;;-1.20;99.90;;;;;;5070121;28;20478;-82
2021/01/27 09:23:54;;;;;;;14.95;9.35;;;-1.20;99.90;;;;;;5069037;28;20040;-82
2021/01/27 09:26:31;;;;;;;21.13;10.27;;;-1.30;99.90;;;;;;5053310;28;20025;-81
2021/01/27 09:29:25;;;;;;;22.08;9.93;;;-1.20;99.90;;;;;;5054280;28;20025;-82
2021/01/27 09:31:51;;;;;;;20.23;10.48;;;-1.10;99.90;;;;;;5069941;28;20021;-82
2021/01/27 09:34:26;;;;;;;45.95;17.35;;;-0.90;99.90;;;;;;5053369;28;20028;-82
2021/01/27 09:37:05;;;;;;;54.97;20.80;;;-0.80;99.90;;;;;;5054397;28;20359;-82
2021/01/27 09:39:34;;;;;;;78.20;29.30;;;-0.80;99.90;;;;;;5052974;28;20028;-82
2021/01/27 09:42:31;;;;;;;71.85;28.08;;;-0.70;99.90;;;;;;5053281;28;20055;-82
2021/01/27 09:45:01;;;;;;;38.67;18.33;;;-0.70;99.90;;;;;;5048437;28;20029;-82
2021/01/27 09:47:29;;;;;;;39.88;17.55;;;-0.80;99.90;;;;;;5054087;28;20025;-82
2021/01/27 09:49:57;;;;;;;39.22;18.80;;;-0.70;99.90;;;;;;5052886;28;20029;-82
2021/01/27 09:52:25;;;;;;;34.17;14.20;;;-0.70;99.90;;;;;;5054053;28;20474;-82
2021/01/27 09:54:57;;;;;;;31.15;15.75;;;-0.80;99.90;;;;;;5052698;28;20390;-82
2021/01/27 09:57:25;;;;;;;25.85;11.95;;;-0.70;99.90;;;;;;5052701;28;20040;-82
2021/01/27 09:59:56;;;;;;;35.30;16.15;;;-0.80;99.90;;;;;;5053122;28;20573;-82
2021/01/27 10:02:27;;;;;;;90.68;31.80;;;-0.70;99.90;;;;;;5052249;28;20041;-82
2021/01/27 10:04:53;;;;;;;39.70;16.83;;;-0.70;99.90;;;;;;5052071;28;20028;-82
2021/01/27 10:07:27;;;;;;;47.20;20.02;;;-0.70;99.90;;;;;;5069427;28;20020;-82
2021/01/27 10:10:19;;;;;;;30.55;12.82;;;-0.70;99.90;;;;;;5069197;28;20120;-82
2021/01/27 10:12:46;;;;;;;31.08;14.70;;;-0.70;99.90;;;;;;5052667;28;20493;-82
2021/01/27 10:15:34;;;;;;;23.95;10.75;;;-0.70;99.90;;;;;;5052563;28;20364;-82
2021/01/27 10:18:26;;;;;;;22.40;11.85;;;-0.80;99.90;;;;;;5052271;28;20367;-82
2021/01/27 10:21:00;;;;;;;20.20;10.43;;;-0.90;99.90;;;;;;5051913;28;20068;-82
2021/01/27 10:23:37;;;;;;;20.02;10.77;;;-1.00;99.90;;;;;;5051558;28;20116;-82
2021/01/27 10:26:36;;;;;;;14.63;8.48;;;-0.90;99.90;;;;;;5068822;28;20120;-82
2021/01/27 10:29:22;;;;;;;14.25;8.23;;;-1.00;99.90;;;;;;5033171;28;20040;-82
2021/01/27 10:31:51;;;;;;;19.17;9.48;;;-1.10;99.90;;;;;;5063680;28;20031;-82
2021/01/27 10:34:37;;;;;;;16.33;8.93;;;-1.10;99.90;;;;;;5064938;28;20028;-81
2021/01/27 10:37:03;;;;;;;13.27;7.10;;;-1.20;99.90;;;;;;5068615;28;20024;-82
2021/01/27 10:39:31;;;;;;;14.32;7.10;;;-1.20;99.90;;;;;;5053024;28;20501;-82
2021/01/27 10:42:09;;;;;;;14.50;8.00;;;-1.30;99.90;;;;;;5065126;28;20382;-82
2021/01/27 10:44:39;;;;;;;14.85;8.80;;;-1.40;99.90;;;;;;5052676;28;20039;-82
2021/01/27 10:47:08;;;;;;;15.45;9.45;;;-1.40;99.90;;;;;;5067606;28;20059;-82
2021/01/27 10:49:46;;;;;;;13.43;8.32;;;-1.50;99.90;;;;;;5068418;28;20025;-82
2021/01/27 10:52:36;;;;;;;15.27;9.18;;;-1.60;99.90;;;;;;5052792;28;20104;-81
2021/01/27 10:55:07;;;;;;;19.33;10.57;;;-1.60;99.90;;;;;;5065747;28;20009;-81
2021/01/27 10:57:33;;;;;;;15.18;8.65;;;-1.60;99.90;;;;;;5063479;28;20368;-82
2021/01/27 10:59:58;;;;;;;28.42;13.98;;;-1.60;99.90;;;;;;5052220;28;20040;-82
2021/01/27 11:02:26;;;;;;;19.20;10.18;;;-1.50;99.90;;;;;;5067113;28;20033;-82
2021/01/27 11:04:52;;;;;;;25.52;12.60;;;-1.40;99.90;;;;;;5066512;28;20028;-82
2021/01/27 11:07:17;;;;;;;34.85;14.95;;;-1.40;99.90;;;;;;5048949;28;20561;-83
2021/01/27 11:09:46;;;;;;;20.50;10.60;;;-1.40;99.90;;;;;;5051438;28;20107;-82
2021/01/27 11:12:11;;;;;;;27.83;13.57;;;-1.50;99.90;;;;;;5051802;28;20013;-83
2021/01/27 11:14:37;;;;;;;21.75;10.57;;;-1.40;99.90;;;;;;5051387;28;20040;-82
2021/01/27 11:17:03;;;;;;;26.08;11.25;;;-1.50;99.90;;;;;;5050549;28;20017;-83
2021/01/27 11:19:28;;;;;;;22.55;11.68;;;-1.50;99.90;;;;;;5066883;28;20032;-82
2021/01/27 11:21:54;;;;;;;32.92;15.27;;;-1.40;99.90;;;;;;5067063;28;20039;-83
2021/01/27 11:24:20;;;;;;;14.70;8.32;;;-1.40;99.90;;;;;;5050976;28;20047;-83
2021/01/27 11:26:45;;;;;;;14.88;9.48;;;-1.40;98.10;;;;;;5050706;28;20356;-82
2021/01/27 11:29:11;;;;;;;21.60;10.20;;;-1.50;96.00;;;;;;5051413;28;20036;-83
2021/01/27 11:31:37;;;;;;;20.75;10.02;;;-1.50;95.80;;;;;;5046821;28;20398;-83
2021/01/27 11:34:03;;;;;;;13.95;7.57;;;-1.40;97.20;;;;;;5065973;28;20044;-83
2021/01/27 11:36:28;;;;;;;18.90;11.07;;;-1.30;98.50;;;;;;5054048;28;20021;-83
2021/01/27 11:38:54;;;;;;;18.40;10.43;;;-1.20;98.50;;;;;;5055278;28;20025;-83
2021/01/27 11:41:23;;;;;;;18.42;10.88;;;-1.20;99.50;;;;;;5055996;28;20078;-83
2021/01/27 11:43:48;;;;;;;24.10;11.43;;;-1.10;99.80;;;;;;5055463;28;20120;-83
2021/01/27 11:46:18;;;;;;;22.23;10.23;;;-1.10;99.60;;;;;;5070569;28;20112;-84
2021/01/27 11:48:44;;;;;;;20.20;10.48;;;-1.00;98.20;;;;;;5068477;28;20049;-83
2021/01/27 11:51:11;;;;;;;23.70;10.88;;;-1.00;97.60;;;;;;5071200;28;20025;-83
2021/01/27 11:53:38;;;;;;;18.98;8.73;;;-1.10;95.00;;;;;;5055835;28;20063;-83
2021/01/27 11:56:05;;;;;;;20.88;10.25;;;-1.10;94.80;;;;;;5055797;28;20062;-83
2021/01/27 11:58:30;;;;;;;27.02;13.55;;;-1.10;95.40;;;;;;5054687;28;20025;-83
2021/01/27 12:00:57;;;;;;;25.10;11.85;;;-1.00;97.00;;;;;;5055807;28;20106;-83
2021/01/27 12:03:23;;;;;;;21.42;13.73;;;-1.10;96.80;;;;;;5071121;28;20087;-83
2021/01/27 12:05:49;;;;;;;32.45;17.80;;;-1.00;98.60;;;;;;5070710;28;20474;-83
2021/01/27 12:08:18;;;;;;;26.85;13.70;;;-1.10;98.70;;;;;;5055295;28;20498;-83
2021/01/27 12:10:44;;;;;;;28.45;13.57;;;-1.10;99.30;;;;;;5067139;28;20386;-83
2021/01/27 12:13:11;;;;;;;23.15;11.73;;;-1.10;99.80;;;;;;5055275;28;20045;-83
2021/01/27 12:15:37;;;;;;;19.42;10.32;;;-1.10;99.80;;;;;;5055553;28;20033;-83
2021/01/27 12:18:04;;;;;;;22.73;13.35;;;-1.10;99.90;;;;;;5055196;28;20070;-83
2021/01/27 12:20:30;;;;;;;27.42;12.93;;;-1.20;99.90;;;;;;5051688;28;20078;-83
2021/01/27 12:22:56;;;;;;;39.47;18.50;;;-1.10;99.90;;;;;;5054611;28;20470;-83
2021/01/27 12:25:22;;;;;;;49.80;23.77;;;-1.20;99.90;;;;;;5053478;28;20018;-83
2021/01/27 12:27:48;;;;;;;31.83;14.73;;;-1.20;99.90;;;;;;5069934;28;20083;-83
2021/01/27 12:30:14;;;;;;;28.30;13.23;;;-1.20;99.90;;;;;;5053123;28;20044;-83
2021/01/27 12:32:41;;;;;;;56.75;27.42;;;-1.20;99.90;;;;;;5069762;28;20025;-83
2021/01/27 12:35:08;;;;;;;48.95;23.33;;;-1.20;99.90;;;;;;5054843;28;20060;-84
2021/01/27 12:37:33;;;;;;;56.10;27.90;;;-1.20;99.90;;;;;;5055024;28;20021;-84
2021/01/27 12:40:00;;;;;;;55.17;26.77;;;-1.10;99.90;;;;;;5054886;28;20109;-83
2021/01/27 12:42:25;;;;;;;68.50;33.65;;;-1.10;99.90;;;;;;5054363;28;20037;-83
2021/01/27 12:44:51;;;;;;;67.38;30.17;;;-1.00;99.90;;;;;;5069247;28;20036;-83
2021/01/27 12:47:22;;;;;;;85.85;38.17;;;-1.00;99.90;;;;;;5051113;28;20120;-82
2021/01/27 12:49:48;;;;;;;79.20;32.78;;;-0.90;99.90;;;;;;5070029;28;20425;-83
2021/01/27 12:52:13;;;;;;;33.00;18.08;;;-0.80;99.90;;;;;;5053952;28;20109;-83
2021/01/27 12:54:39;;;;;;;57.97;22.08;;;-0.70;99.90;;;;;;5069204;28;20522;-83
2021/01/27 12:57:05;;;;;;;26.05;12.60;;;-0.70;99.90;;;;;;5054310;28;20066;-83
2021/01/27 12:59:31;;;;;;;27.00;13.93;;;-0.60;99.90;;;;;;5070083;28;20108;-83